createdAt,value
2023-03-15T00:01:16.901Z,1001.96
2023-03-15T00:04:16.890Z,1002.06
2023-03-15T00:07:16.887Z,1002.06
2023-03-15T00:10:16.906Z,1002.13
2023-03-15T00:13:16.879Z,1002.14
2023-03-15T00:16:16.959Z,1002.16
2023-03-15T00:19:16.887Z,1002.26
2023-03-15T00:22:16.888Z,1002.27
2023-03-15T00:25:16.893Z,1002.33
2023-03-15T00:28:16.884Z,1002.43
2023-03-15T00:31:16.968Z,1002.5
2023-03-15T00:34:16.893Z,1002.53
2023-03-15T00:37:16.884Z,1002.51
2023-03-15T00:40:16.892Z,1002.53
2023-03-15T00:43:16.888Z,1002.58
2023-03-15T00:46:16.933Z,1002.59
2023-03-15T00:49:16.902Z,1002.61
2023-03-15T00:52:16.881Z,1002.63
2023-03-15T00:55:16.913Z,1002.6
2023-03-15T00:58:16.877Z,1002.63
2023-03-15T01:01:16.878Z,1002.7
2023-03-15T01:04:16.888Z,1002.74
2023-03-15T01:07:16.886Z,1002.83
2023-03-15T01:10:16.914Z,1002.93
2023-03-15T01:13:16.885Z,1002.94
2023-03-15T01:16:16.954Z,1002.99
2023-03-15T01:19:16.883Z,1002.99
2023-03-15T01:22:16.874Z,1002.97
2023-03-15T01:25:16.885Z,1002.99
2023-03-15T01:28:16.892Z,1002.99
2023-03-15T01:31:16.922Z,1003.03
2023-03-15T01:34:16.899Z,1003.05
2023-03-15T01:37:16.872Z,1003.03
2023-03-15T01:40:16.889Z,1003.01
2023-03-15T01:43:16.882Z,1003.08
2023-03-15T01:46:16.980Z,1003.14
2023-03-15T01:49:16.892Z,1003.14
2023-03-15T01:52:16.875Z,1003.19
2023-03-15T01:55:16.870Z,1003.23
2023-03-15T01:58:16.873Z,1003.33
2023-03-15T02:01:16.976Z,1003.33
2023-03-15T02:04:16.879Z,1003.3
2023-03-15T02:07:16.883Z,1003.33
2023-03-15T02:10:16.871Z,1003.36
2023-03-15T02:13:16.870Z,1003.43
2023-03-15T02:16:16.907Z,1003.5
2023-03-15T02:19:16.867Z,1003.52
2023-03-15T02:22:16.872Z,1003.48
2023-03-15T02:25:16.901Z,1003.45
2023-03-15T02:28:16.875Z,1003.45
2023-03-15T02:31:16.961Z,1003.43
2023-03-15T02:34:16.876Z,1003.45
2023-03-15T02:37:16.876Z,1003.49
2023-03-15T02:40:16.881Z,1003.53
2023-03-15T02:43:16.875Z,1003.47
2023-03-15T02:46:16.913Z,1003.41
2023-03-15T02:49:16.862Z,1003.43
2023-03-15T02:52:16.867Z,1003.48
2023-03-15T02:55:16.892Z,1003.59
2023-03-15T02:58:16.856Z,1003.62
2023-03-15T03:01:17.009Z,1003.66
2023-03-15T03:04:16.865Z,1003.67
2023-03-15T03:07:16.857Z,1003.63
2023-03-15T03:10:16.867Z,1003.64
2023-03-15T03:13:16.891Z,1003.67
2023-03-15T03:16:16.896Z,1003.71
2023-03-15T03:19:16.851Z,1003.77
2023-03-15T03:22:16.855Z,1003.78
2023-03-15T03:25:16.853Z,1003.91
2023-03-15T03:28:16.845Z,1003.98
2023-03-15T03:31:16.896Z,1004.1
2023-03-15T03:34:16.875Z,1004.09
2023-03-15T03:37:16.849Z,1004.14
2023-03-15T03:40:16.840Z,1004.18
2023-03-15T03:43:16.858Z,1004.17
2023-03-15T03:46:16.866Z,1004.17
2023-03-15T03:49:16.837Z,1004.18
2023-03-15T03:52:16.844Z,1004.25
2023-03-15T03:55:16.852Z,1004.25
2023-03-15T03:58:16.827Z,1004.32
2023-03-15T04:01:16.834Z,1004.31
2023-03-15T04:04:16.888Z,1004.36
2023-03-15T04:07:17.168Z,1004.4
2023-03-15T04:10:16.835Z,1004.39
2023-03-15T04:13:16.830Z,1004.43
2023-03-15T04:16:16.930Z,1004.52
2023-03-15T04:19:16.838Z,1004.51
2023-03-15T04:22:16.855Z,1004.49
2023-03-15T04:25:16.847Z,1004.41
2023-03-15T04:28:16.823Z,1004.39
2023-03-15T04:31:16.861Z,1004.5
2023-03-15T04:34:16.834Z,1004.57
2023-03-15T04:37:16.835Z,1004.6
2023-03-15T04:40:16.816Z,1004.63
2023-03-15T04:43:16.826Z,1004.57
2023-03-15T04:46:16.884Z,1004.57
2023-03-15T04:49:16.826Z,1004.6
2023-03-15T04:52:16.827Z,1004.6
2023-03-15T04:55:16.854Z,1004.59
2023-03-15T04:58:16.845Z,1004.59
2023-03-15T05:01:16.958Z,1004.59
2023-03-15T05:04:16.837Z,1004.6
2023-03-15T05:07:16.831Z,1004.61
2023-03-15T05:10:16.820Z,1004.57
2023-03-15T05:13:16.819Z,1004.65
2023-03-15T05:16:16.891Z,1004.69
2023-03-15T05:19:16.816Z,1004.68
2023-03-15T05:22:16.817Z,1004.7
2023-03-15T05:25:16.831Z,1004.76
2023-03-15T05:28:16.811Z,1004.73
2023-03-15T05:31:16.838Z,1004.77
2023-03-15T05:34:16.829Z,1004.81
2023-03-15T05:37:16.840Z,1004.89
2023-03-15T05:40:16.864Z,1004.95
2023-03-15T05:43:16.919Z,1004.93
2023-03-15T05:46:16.882Z,1004.97
2023-03-15T05:49:16.805Z,1005.04
2023-03-15T05:52:16.827Z,1005.06
2023-03-15T05:55:16.798Z,1005.1
2023-03-15T05:58:16.823Z,1005.13
2023-03-15T06:01:16.807Z,1005.15
2023-03-15T06:04:16.900Z,1005.09
2023-03-15T06:07:16.808Z,1005.14
2023-03-15T06:10:16.809Z,1005.04
2023-03-15T06:13:18.287Z,1005.07
2023-03-15T06:16:16.868Z,1005.12
2023-03-15T06:19:16.797Z,1005.15
2023-03-15T06:22:16.793Z,1005.22
2023-03-15T06:25:16.801Z,1005.3
2023-03-15T06:28:16.787Z,1005.32
2023-03-15T06:31:16.884Z,1005.39
2023-03-15T06:34:16.799Z,1005.36
2023-03-15T06:37:25.767Z,1005.44
2023-03-15T06:40:16.820Z,1005.48
2023-03-15T06:43:16.783Z,1005.53
2023-03-15T06:46:16.840Z,1005.53
2023-03-15T06:49:16.778Z,1005.51
2023-03-15T06:52:16.777Z,1005.54
2023-03-15T06:55:16.782Z,1005.56
2023-03-15T06:58:16.774Z,1005.62
2023-03-15T07:01:16.853Z,1005.61
2023-03-15T07:04:16.801Z,1005.66
2023-03-15T07:07:16.787Z,1005.67
2023-03-15T07:10:16.788Z,1005.72
2023-03-15T07:13:16.791Z,1005.72
2023-03-15T07:16:16.917Z,1005.71
2023-03-15T07:19:16.781Z,1005.73
2023-03-15T07:22:16.773Z,1005.74
2023-03-15T07:25:16.781Z,1005.78
2023-03-15T07:28:16.783Z,1005.86
2023-03-15T07:31:16.785Z,1005.93
2023-03-15T07:34:16.775Z,1005.92
2023-03-15T07:37:16.792Z,1005.95
2023-03-15T07:40:16.790Z,1005.99
2023-03-15T07:43:16.790Z,1006
2023-03-15T07:46:16.820Z,1006.02
2023-03-15T07:49:16.772Z,1006
2023-03-15T07:52:16.769Z,1005.99
2023-03-15T07:55:16.770Z,1005.99
2023-03-15T07:58:19.108Z,1006.03
2023-03-15T08:01:16.774Z,1006.1
2023-03-15T08:04:16.941Z,1006.15
2023-03-15T08:07:16.774Z,1006.18
2023-03-15T08:10:16.772Z,1006.19
2023-03-15T08:13:16.783Z,1006.18
2023-03-15T08:16:16.880Z,1006.23
2023-03-15T08:19:16.776Z,1006.22
2023-03-15T08:22:16.775Z,1006.25
2023-03-15T08:25:16.772Z,1006.34
2023-03-15T08:28:16.757Z,1006.39
2023-03-15T08:31:16.781Z,1006.43
2023-03-15T08:34:16.799Z,1006.47
2023-03-15T08:37:16.929Z,1006.45
2023-03-15T08:40:16.816Z,1006.49
2023-03-15T08:43:16.765Z,1006.56
2023-03-15T08:46:16.932Z,1006.6
2023-03-15T08:49:16.761Z,1006.64
2023-03-15T08:52:18.168Z,1006.65
2023-03-15T08:55:16.757Z,1006.7
2023-03-15T08:58:16.776Z,1006.77
2023-03-15T09:01:16.765Z,1006.83
2023-03-15T09:04:16.790Z,1006.82
2023-03-15T09:07:16.760Z,1006.88
2023-03-15T09:10:16.767Z,1006.95
2023-03-15T09:13:16.768Z,1006.97
2023-03-15T09:16:16.753Z,1006.99
2023-03-15T09:19:16.752Z,1007.02
2023-03-15T09:22:24.064Z,1007.07
2023-03-15T09:25:16.760Z,1007.09
2023-03-15T09:28:16.767Z,1007.08
2023-03-15T09:31:16.887Z,1007.07
2023-03-15T09:34:16.754Z,1007.08
2023-03-15T09:37:16.753Z,1007.12
2023-03-15T09:40:16.776Z,1007.18
2023-03-15T09:43:16.760Z,1007.21
2023-03-15T09:46:16.778Z,1007.2
2023-03-15T09:49:16.759Z,1007.25
2023-03-15T09:52:16.745Z,1007.24
2023-03-15T09:55:16.749Z,1007.24
2023-03-15T09:58:16.742Z,1007.32
2023-03-15T10:01:16.841Z,1007.42
2023-03-15T10:04:16.753Z,1007.39
2023-03-15T10:07:16.748Z,1007.43
2023-03-15T10:10:16.744Z,1007.43
2023-03-15T10:13:16.779Z,1007.41
2023-03-15T10:16:16.872Z,1007.41
2023-03-15T10:19:16.755Z,1007.37
2023-03-15T10:22:16.751Z,1007.45
2023-03-15T10:25:16.780Z,1007.46
2023-03-15T10:28:16.760Z,1007.49
2023-03-15T10:31:21.488Z,1007.55
2023-03-15T10:34:16.799Z,1007.56
2023-03-15T10:37:16.753Z,1007.56
2023-03-15T10:40:16.730Z,1007.49
2023-03-15T10:43:16.724Z,1007.48
2023-03-15T10:46:16.771Z,1007.5
2023-03-15T10:49:16.730Z,1007.43
2023-03-15T10:52:16.729Z,1007.42
2023-03-15T10:55:16.734Z,1007.35
2023-03-15T10:58:16.727Z,1007.35
2023-03-15T11:01:16.773Z,1007.32
2023-03-15T11:04:16.757Z,1007.33
2023-03-15T11:07:16.722Z,1007.32
2023-03-15T11:10:16.708Z,1007.39
2023-03-15T11:13:16.719Z,1007.45
2023-03-15T11:16:16.760Z,1007.52
2023-03-15T11:19:16.714Z,1007.55
2023-03-15T11:22:16.715Z,1007.57
2023-03-15T11:25:16.731Z,1007.59
2023-03-15T11:28:16.720Z,1007.63
2023-03-15T11:31:16.746Z,1007.62
2023-03-15T11:34:16.697Z,1007.63
2023-03-15T11:37:16.712Z,1007.61
2023-03-15T11:40:17.337Z,1007.71
2023-03-15T11:43:16.705Z,1007.71
2023-03-15T11:46:16.695Z,1007.7
2023-03-15T11:49:16.700Z,1007.71
2023-03-15T11:52:16.718Z,1007.76
2023-03-15T11:55:16.702Z,1007.75
2023-03-15T11:58:16.699Z,1007.84
2023-03-15T12:01:16.700Z,1007.9
2023-03-15T12:04:16.695Z,1007.85
2023-03-15T12:07:16.710Z,1007.84
2023-03-15T12:10:16.697Z,1007.83
2023-03-15T12:13:16.692Z,1007.85
2023-03-15T12:16:16.794Z,1007.83
2023-03-15T12:19:16.692Z,1007.85
2023-03-15T12:22:16.688Z,1007.9
2023-03-15T12:25:16.694Z,1007.98
2023-03-15T12:28:16.699Z,1007.93
2023-03-15T12:31:16.729Z,1008
2023-03-15T12:34:16.684Z,1008.02
2023-03-15T12:37:16.686Z,1008
2023-03-15T12:40:16.692Z,1008
2023-03-15T12:43:16.764Z,1008.05
2023-03-15T12:46:16.729Z,1008.06
2023-03-15T12:49:16.699Z,1008.05
2023-03-15T12:52:16.701Z,1008.06
2023-03-15T12:55:16.700Z,1008.05
2023-03-15T12:58:16.692Z,1008.01
2023-03-15T13:01:16.756Z,1008.02
2023-03-15T13:04:16.690Z,1008.05
2023-03-15T13:07:16.705Z,1008.05
2023-03-15T13:10:16.703Z,1008.03
2023-03-15T13:13:16.687Z,1008.02
2023-03-15T13:16:19.039Z,1008.08
2023-03-15T13:19:16.708Z,1008
2023-03-15T13:22:16.692Z,1007.97
2023-03-15T13:25:16.684Z,1008.02
2023-03-15T13:28:16.718Z,1007.93
2023-03-15T13:31:16.755Z,1007.95
2023-03-15T13:34:16.701Z,1008.02
2023-03-15T13:37:16.682Z,1008.03
2023-03-15T13:40:16.700Z,1007.97
2023-03-15T13:43:16.686Z,1008.01
2023-03-15T13:46:16.701Z,1007.97
2023-03-15T13:49:16.676Z,1007.93
2023-03-15T13:52:16.704Z,1007.86
2023-03-15T13:55:16.677Z,1007.83
2023-03-15T13:58:16.675Z,1007.81
2023-03-15T14:01:16.682Z,1007.85
2023-03-15T14:04:16.688Z,1007.83
2023-03-15T14:07:16.687Z,1007.83
2023-03-15T14:10:16.697Z,1007.9
2023-03-15T14:13:16.674Z,1007.93
2023-03-15T14:16:16.739Z,1007.93
2023-03-15T14:19:16.673Z,1007.89
2023-03-15T14:22:16.724Z,1007.92
2023-03-15T14:25:16.696Z,1007.92
2023-03-15T14:28:16.688Z,1007.95
2023-03-15T14:31:16.725Z,1007.98
2023-03-15T14:34:16.672Z,1007.93
2023-03-15T14:37:16.670Z,1007.99
2023-03-15T14:40:16.667Z,1007.96
2023-03-15T14:43:16.668Z,1007.97
2023-03-15T14:46:16.762Z,1008.08
2023-03-15T14:49:16.685Z,1008.11
2023-03-15T14:52:16.688Z,1008.15
2023-03-15T14:55:16.680Z,1008.17
2023-03-15T14:58:16.677Z,1008.18
2023-03-15T15:01:16.711Z,1008.2
2023-03-15T15:04:16.668Z,1008.24
2023-03-15T15:07:16.676Z,1008.31
2023-03-15T15:10:16.672Z,1008.31
2023-03-15T15:13:16.726Z,1008.31
2023-03-15T15:16:16.770Z,1008.35
2023-03-15T15:19:16.685Z,1008.44
2023-03-15T15:22:16.687Z,1008.44
2023-03-15T15:25:16.685Z,1008.44
2023-03-15T15:28:33.035Z,1008.42
2023-03-15T15:31:16.755Z,1008.44
2023-03-15T15:34:16.691Z,1008.45
2023-03-15T15:37:16.671Z,1008.51
2023-03-15T15:40:16.700Z,1008.51
2023-03-15T15:43:16.711Z,1008.58
2023-03-15T15:46:16.743Z,1008.61
2023-03-15T15:49:16.703Z,1008.58
2023-03-15T15:52:16.686Z,1008.64
2023-03-15T15:55:16.677Z,1008.69
2023-03-15T15:58:16.678Z,1008.76
2023-03-15T16:01:16.733Z,1008.75
2023-03-15T16:04:16.681Z,1008.83
2023-03-15T16:07:16.667Z,1008.84
2023-03-15T16:10:16.672Z,1008.85
2023-03-15T16:13:16.698Z,1008.81
2023-03-15T16:16:16.737Z,1008.81
2023-03-15T16:19:16.700Z,1008.84
2023-03-15T16:22:16.672Z,1008.86
2023-03-15T16:25:16.664Z,1008.85
2023-03-15T16:28:16.652Z,1008.81
2023-03-15T16:31:16.704Z,1008.84
2023-03-15T16:34:16.662Z,1008.85
2023-03-15T16:37:16.660Z,1008.88
2023-03-15T16:40:16.669Z,1008.91
2023-03-15T16:43:16.657Z,1008.93
2023-03-15T16:46:16.769Z,1008.89
2023-03-15T16:49:16.651Z,1008.93
2023-03-15T16:52:16.663Z,1008.91
2023-03-15T16:55:16.652Z,1008.89
2023-03-15T16:58:16.671Z,1008.93
2023-03-15T17:01:16.761Z,1008.91
2023-03-15T17:04:16.696Z,1008.92
2023-03-15T17:07:16.649Z,1008.97
2023-03-15T17:10:16.661Z,1008.97
2023-03-15T17:13:16.656Z,1009.04
2023-03-15T17:16:16.769Z,1009.07
2023-03-15T17:19:16.665Z,1009.09
2023-03-15T17:22:16.635Z,1009.14
2023-03-15T17:25:16.643Z,1009.18
2023-03-15T17:28:16.635Z,1009.18
2023-03-15T17:31:24.797Z,1009.27
2023-03-15T17:34:16.640Z,1009.28
2023-03-15T17:37:16.635Z,1009.3
2023-03-15T17:40:16.635Z,1009.35
2023-03-15T17:43:16.652Z,1009.38
2023-03-15T17:46:16.682Z,1009.43
2023-03-15T17:49:16.630Z,1009.48
2023-03-15T17:52:16.637Z,1009.5
2023-03-15T17:55:16.632Z,1009.51
2023-03-15T17:58:16.634Z,1009.53
2023-03-15T18:01:16.680Z,1009.6
2023-03-15T18:04:16.676Z,1009.61
2023-03-15T18:07:16.622Z,1009.58
2023-03-15T18:10:16.632Z,1009.57
2023-03-15T18:13:16.640Z,1009.57
2023-03-15T18:16:16.718Z,1009.57
2023-03-15T18:19:16.624Z,1009.64
2023-03-15T18:22:16.625Z,1009.68
2023-03-15T18:25:16.648Z,1009.76
2023-03-15T18:28:16.618Z,1009.8
2023-03-15T18:31:16.695Z,1009.86
2023-03-15T18:34:16.617Z,1009.89
2023-03-15T18:37:16.620Z,1009.89
2023-03-15T18:40:16.617Z,1009.9
2023-03-15T18:43:16.618Z,1009.89
2023-03-15T18:46:16.680Z,1009.9
2023-03-15T18:49:16.612Z,1009.92
2023-03-15T18:52:16.665Z,1009.96
2023-03-15T18:55:16.610Z,1009.92
2023-03-15T18:58:16.708Z,1009.95
2023-03-15T19:01:16.715Z,1009.98
2023-03-15T19:04:16.672Z,1010.02
2023-03-15T19:07:16.659Z,1009.98
2023-03-15T19:10:16.615Z,1010
2023-03-15T19:13:16.635Z,1010
2023-03-15T19:16:16.639Z,1010.01
2023-03-15T19:19:16.606Z,1010.01
2023-03-15T19:22:16.594Z,1010.02
2023-03-15T19:25:16.587Z,1010.06
2023-03-15T19:28:16.600Z,1010.1
2023-03-15T19:31:16.646Z,1010.14
2023-03-15T19:34:16.598Z,1010.18
2023-03-15T19:37:16.607Z,1010.17
2023-03-15T19:40:16.585Z,1010.19
2023-03-15T19:43:16.631Z,1010.25
2023-03-15T19:46:16.625Z,1010.26
2023-03-15T19:49:16.579Z,1010.27
2023-03-15T19:52:16.626Z,1010.35
2023-03-15T19:55:16.580Z,1010.36
2023-03-15T19:58:16.603Z,1010.41
2023-03-15T20:01:16.665Z,1010.42
2023-03-15T20:04:16.669Z,1010.38
2023-03-15T20:07:16.572Z,1010.37
2023-03-15T20:10:16.574Z,1010.39
2023-03-15T20:13:16.569Z,1010.4
2023-03-15T20:16:16.699Z,1010.45
2023-03-15T20:19:16.587Z,1010.5
2023-03-15T20:22:16.571Z,1010.49
2023-03-15T20:25:16.598Z,1010.53
2023-03-15T20:28:16.568Z,1010.52
2023-03-15T20:31:16.603Z,1010.61
2023-03-15T20:34:16.573Z,1010.58
2023-03-15T20:37:16.578Z,1010.56
2023-03-15T20:40:16.564Z,1010.5
2023-03-15T20:43:16.570Z,1010.61
2023-03-15T20:46:16.633Z,1010.62
2023-03-15T20:49:16.570Z,1010.62
2023-03-15T20:52:16.555Z,1010.65
2023-03-15T20:55:16.571Z,1010.66
2023-03-15T20:58:16.549Z,1010.66
2023-03-15T21:01:16.778Z,1010.66
2023-03-15T21:04:16.561Z,1010.69
2023-03-15T21:07:16.570Z,1010.71
2023-03-15T21:10:16.599Z,1010.76
2023-03-15T21:13:16.556Z,1010.73
2023-03-15T21:16:16.614Z,1010.78
2023-03-15T21:19:16.559Z,1010.83
2023-03-15T21:22:16.560Z,1010.82
2023-03-15T21:25:16.548Z,1010.8
2023-03-15T21:28:16.555Z,1010.73
2023-03-15T21:31:16.588Z,1010.78
2023-03-15T21:34:16.560Z,1010.77
2023-03-15T21:37:16.543Z,1010.82
2023-03-15T21:40:16.577Z,1010.86
2023-03-15T21:43:16.552Z,1010.85
2023-03-15T21:46:16.703Z,1010.83
2023-03-15T21:49:16.561Z,1010.91
2023-03-15T21:52:16.546Z,1010.92
2023-03-15T21:55:16.543Z,1010.93
2023-03-15T21:58:16.578Z,1010.91
2023-03-15T22:01:16.586Z,1010.82
2023-03-15T22:04:16.580Z,1010.78
2023-03-15T22:07:16.538Z,1010.75
2023-03-15T22:10:16.538Z,1010.8
2023-03-15T22:13:16.538Z,1010.81
2023-03-15T22:16:16.558Z,1010.86
2023-03-15T22:19:16.546Z,1010.78
2023-03-15T22:22:16.527Z,1010.73
2023-03-15T22:25:16.565Z,1010.68
2023-03-15T22:28:16.553Z,1010.64
2023-03-15T22:31:16.606Z,1010.72
2023-03-15T22:34:16.555Z,1010.7
2023-03-15T22:37:16.564Z,1010.71
2023-03-15T22:40:16.547Z,1010.67
2023-03-15T22:43:16.555Z,1010.7
2023-03-15T22:46:16.626Z,1010.77
2023-03-15T22:49:16.530Z,1010.76
2023-03-15T22:52:16.561Z,1010.75
2023-03-15T22:55:16.547Z,1010.74
2023-03-15T22:58:16.536Z,1010.78
2023-03-15T23:01:16.589Z,1010.77
2023-03-15T23:04:16.620Z,1010.8
2023-03-15T23:07:16.551Z,1010.76
2023-03-15T23:10:16.535Z,1010.76
2023-03-15T23:13:16.532Z,1010.75
2023-03-15T23:16:16.612Z,1010.73
2023-03-15T23:19:16.545Z,1010.76
2023-03-15T23:22:16.643Z,1010.76
2023-03-15T23:25:16.972Z,1010.81
2023-03-15T23:28:16.558Z,1010.87
2023-03-15T23:31:16.617Z,1010.88
2023-03-15T23:34:16.544Z,1010.9
2023-03-15T23:37:16.563Z,1010.9
2023-03-15T23:40:16.556Z,1010.88
2023-03-15T23:43:16.551Z,1010.91
2023-03-15T23:46:16.579Z,1010.93
2023-03-15T23:49:16.553Z,1010.99
2023-03-15T23:52:16.578Z,1011.02
2023-03-15T23:55:16.566Z,1011.08
2023-03-15T23:58:16.547Z,1011.1
